createdAt,value
2024-01-24T00:00:43.925Z,100541.84
2024-01-24T00:03:14.211Z,100555.50
2024-01-24T00:05:44.400Z,100520.25
2024-01-24T00:08:14.480Z,100537.44
2024-01-24T00:10:44.567Z,100511.81
2024-01-24T00:13:17.302Z,100515.38
2024-01-24T00:15:47.451Z,100530.88
2024-01-24T00:18:18.199Z,100502.66
2024-01-24T00:20:48.473Z,100520.53
2024-01-24T00:23:18.581Z,100512.03
2024-01-24T00:25:48.682Z,100508.53
2024-01-24T00:28:22.422Z,100526.63
2024-01-24T00:30:52.580Z,100507.06
2024-01-24T00:33:24.096Z,100486.84
2024-01-24T00:35:54.174Z,100449.28
2024-01-24T00:38:24.224Z,100452.16
2024-01-24T00:40:54.328Z,100435.91
2024-01-24T00:43:27.336Z,100445.19
2024-01-24T00:45:57.506Z,100436.03
2024-01-24T00:48:27.800Z,100443.00
2024-01-24T00:50:57.879Z,100441.31
2024-01-24T00:53:29.185Z,100465.19
2024-01-24T00:56:00.037Z,100432.66
2024-01-24T00:58:32.738Z,100397.81
2024-01-24T01:01:03.044Z,100457.75
2024-01-24T01:03:33.320Z,100463.06
2024-01-24T01:06:03.462Z,100440.00
2024-01-24T01:08:33.539Z,100446.78
2024-01-24T01:11:03.700Z,100448.53
2024-01-24T01:13:36.772Z,100443.72
2024-01-24T01:16:07.215Z,100431.88
2024-01-24T01:18:37.443Z,100449.69
2024-01-24T01:21:07.910Z,100422.34
2024-01-24T01:23:38.026Z,100439.66
2024-01-24T01:26:08.483Z,100339.56
2024-01-24T01:28:41.466Z,100412.44
2024-01-24T01:31:11.560Z,100445.84
2024-01-24T01:33:41.721Z,100442.41
2024-01-24T01:36:18.251Z,100439.84
2024-01-24T01:38:53.351Z,100423.75
2024-01-24T01:41:23.456Z,100417.09
2024-01-24T01:43:56.141Z,100446.97
2024-01-24T01:46:28.948Z,100403.28
2024-01-24T01:49:01.920Z,100447.09
2024-01-24T01:51:32.382Z,100412.91
2024-01-24T01:54:02.814Z,100436.03
2024-01-24T01:56:33.236Z,100430.81
2024-01-24T01:59:06.802Z,100411.28
2024-01-24T02:01:37.249Z,100430.06
2024-01-24T02:04:07.795Z,100417.34
2024-01-24T02:06:38.362Z,100353.97
2024-01-24T02:09:11.280Z,100410.78
2024-01-24T02:11:42.625Z,100395.44
2024-01-24T02:14:15.535Z,100406.63
2024-01-24T02:16:46.004Z,100387.91
2024-01-24T02:19:16.274Z,100393.00
2024-01-24T02:21:46.604Z,100368.94
2024-01-24T02:24:19.490Z,100397.25
2024-01-24T02:26:49.985Z,100400.72
2024-01-24T02:29:20.073Z,100392.19
2024-01-24T02:31:50.162Z,100382.03
2024-01-24T02:34:20.405Z,100374.31
2024-01-24T02:36:50.608Z,100365.06
2024-01-24T02:39:23.479Z,100376.19
2024-01-24T02:41:53.754Z,100380.38
2024-01-24T02:44:23.845Z,100326.50
2024-01-24T02:46:53.895Z,100372.72
2024-01-24T02:49:24.084Z,100363.38
2024-01-24T02:51:54.264Z,100344.53
2024-01-24T02:54:27.010Z,100360.91
2024-01-24T02:56:57.120Z,100343.72
2024-01-24T02:59:27.537Z,100368.53
2024-01-24T03:01:57.603Z,100356.72
2024-01-24T03:04:28.227Z,100342.19
2024-01-24T03:06:59.047Z,100315.66
2024-01-24T03:09:31.865Z,100323.38
2024-01-24T03:12:02.076Z,100305.44
2024-01-24T03:14:32.155Z,100320.97
2024-01-24T03:17:02.365Z,100313.25
2024-01-24T03:19:32.703Z,100316.81
2024-01-24T03:22:03.254Z,100302.25
2024-01-24T03:24:35.963Z,100314.28
2024-01-24T03:27:06.064Z,100280.09
2024-01-24T03:29:36.361Z,100309.19
2024-01-24T03:32:06.620Z,100279.22
2024-01-24T03:34:36.677Z,100270.75
2024-01-24T03:37:06.900Z,100252.75
2024-01-24T03:39:41.686Z,100284.50
2024-01-24T03:42:11.761Z,100273.44
2024-01-24T03:44:41.868Z,100255.50
2024-01-24T03:47:11.941Z,100242.75
2024-01-24T03:49:42.082Z,100186.28
2024-01-24T03:52:12.226Z,100222.97
2024-01-24T03:54:44.940Z,100249.47
2024-01-24T03:57:15.035Z,100274.28
2024-01-24T03:59:45.105Z,100250.41
2024-01-24T04:02:15.220Z,100284.56
2024-01-24T04:04:45.364Z,100256.38
2024-01-24T04:07:15.601Z,100304.22
2024-01-24T04:09:48.427Z,100300.03
2024-01-24T04:12:18.577Z,100270.94
2024-01-24T04:14:48.709Z,100300.84
2024-01-24T04:17:18.820Z,100290.63
2024-01-24T04:19:49.056Z,100280.44
2024-01-24T04:22:19.927Z,100292.34
2024-01-24T04:24:52.746Z,100253.00
2024-01-24T04:27:22.914Z,100268.44
2024-01-24T04:29:53.339Z,100275.31
2024-01-24T04:32:23.524Z,100282.97
2024-01-24T04:34:57.893Z,100258.19
2024-01-24T04:37:28.845Z,100259.97
2024-01-24T04:40:01.662Z,100280.44
2024-01-24T04:42:31.777Z,100290.78
2024-01-24T04:45:01.880Z,100287.38
2024-01-24T04:47:31.968Z,100318.06
2024-01-24T04:50:02.351Z,100279.66
2024-01-24T04:52:33.743Z,100264.16
2024-01-24T04:55:07.061Z,100278.66
2024-01-24T04:57:37.803Z,100308.53
2024-01-24T05:00:10.466Z,100323.13
2024-01-24T05:02:40.903Z,100287.22
2024-01-24T05:05:12.083Z,100269.91
2024-01-24T05:07:42.271Z,100349.63
2024-01-24T05:10:15.668Z,100364.16
2024-01-24T05:12:45.817Z,100391.41
2024-01-24T05:15:16.586Z,100386.25
2024-01-24T05:17:46.780Z,100379.50
2024-01-24T05:20:18.657Z,100342.59
2024-01-24T05:22:50.841Z,100393.13
2024-01-24T05:25:23.646Z,100368.25
2024-01-24T05:27:53.847Z,100408.34
2024-01-24T05:30:34.712Z,100395.50
2024-01-24T05:33:07.008Z,100414.28
2024-01-24T05:35:37.108Z,100415.81
2024-01-24T05:38:07.650Z,100431.25
2024-01-24T05:40:40.389Z,100441.41
2024-01-24T05:43:10.668Z,100333.47
2024-01-24T05:45:41.337Z,100400.28
2024-01-24T05:48:12.264Z,100425.91
2024-01-24T05:50:42.413Z,100425.97
2024-01-24T05:53:12.505Z,100418.22
2024-01-24T05:55:45.193Z,100416.56
2024-01-24T05:58:15.334Z,100418.28
2024-01-24T06:00:45.472Z,100426.75
2024-01-24T06:03:16.497Z,100424.22
2024-01-24T06:05:46.793Z,100443.59
2024-01-24T06:08:16.921Z,100392.63
2024-01-24T06:10:49.644Z,100457.50
2024-01-24T06:13:19.766Z,100446.88
2024-01-24T06:15:49.954Z,100443.06
2024-01-24T06:18:20.186Z,100469.53
2024-01-24T06:20:50.488Z,100466.06
2024-01-24T06:23:20.745Z,100457.56
2024-01-24T06:25:53.503Z,100475.69
2024-01-24T06:28:23.658Z,100452.38
2024-01-24T06:30:54.418Z,100472.19
2024-01-24T06:33:25.729Z,100458.63
2024-01-24T06:35:56.103Z,100477.44
2024-01-24T06:38:26.216Z,100468.16
2024-01-24T06:40:59.712Z,100432.88
2024-01-24T06:43:30.344Z,100480.66
2024-01-24T06:46:00.498Z,100480.75
2024-01-24T06:48:30.680Z,100476.22
2024-01-24T06:51:00.881Z,100497.88
2024-01-24T06:53:31.038Z,100503.84
2024-01-24T06:56:05.156Z,100514.13
2024-01-24T06:58:35.220Z,100532.09
2024-01-24T07:01:05.428Z,100544.09
2024-01-24T07:03:35.680Z,100517.50
2024-01-24T07:06:07.188Z,100526.75
2024-01-24T07:08:40.092Z,100518.16
2024-01-24T07:11:14.277Z,100546.47
2024-01-24T07:13:44.468Z,100566.16
2024-01-24T07:16:14.577Z,100532.66
2024-01-24T07:18:44.826Z,100583.28
2024-01-24T07:21:15.130Z,100535.97
2024-01-24T07:23:46.458Z,100585.09
2024-01-24T07:26:19.228Z,100569.56
2024-01-24T07:28:49.614Z,100530.66
2024-01-24T07:31:19.668Z,100594.34
2024-01-24T07:33:49.895Z,100554.03
2024-01-24T07:36:22.321Z,100580.53
2024-01-24T07:38:52.411Z,100596.16
2024-01-24T07:41:25.090Z,100619.22
2024-01-24T07:43:59.284Z,100620.84
2024-01-24T07:46:30.749Z,100597.31
2024-01-24T07:49:00.959Z,100586.34
2024-01-24T07:51:31.524Z,100618.13
2024-01-24T07:54:01.738Z,100625.91
2024-01-24T07:56:34.554Z,100650.63
2024-01-24T07:59:05.525Z,100630.91
2024-01-24T08:01:35.930Z,100638.59
2024-01-24T08:04:06.273Z,100635.91
2024-01-24T08:06:36.552Z,100648.94
2024-01-24T08:09:08.388Z,100648.94
2024-01-24T08:11:44.680Z,100641.13
2024-01-24T08:14:15.184Z,100646.47
2024-01-24T08:17:03.103Z,100648.03
2024-01-24T08:19:33.355Z,100634.97
2024-01-24T08:22:05.092Z,100638.41
2024-01-24T08:24:35.659Z,100692.34
2024-01-24T08:27:08.471Z,100653.63
2024-01-24T08:29:38.703Z,100682.97
2024-01-24T08:32:09.424Z,100671.03
2024-01-24T08:34:40.464Z,100665.09
2024-01-24T08:37:10.679Z,100676.16
2024-01-24T08:39:40.832Z,100643.44
2024-01-24T08:42:14.561Z,100672.59
2024-01-24T08:44:44.821Z,100666.47
2024-01-24T08:47:14.935Z,100694.06
2024-01-24T08:49:45.727Z,100656.13
2024-01-24T08:52:15.926Z,100714.56
2024-01-24T08:54:47.144Z,100700.88
2024-01-24T08:57:20.367Z,100674.34
2024-01-24T08:59:51.505Z,100696.50
2024-01-24T09:02:22.575Z,100701.53
2024-01-24T09:04:57.406Z,100668.88
2024-01-24T09:07:27.552Z,100699.13
2024-01-24T09:09:57.687Z,100705.97
2024-01-24T09:12:31.984Z,100709.28
2024-01-24T09:15:02.333Z,100711.94
2024-01-24T09:17:33.718Z,100708.44
2024-01-24T09:20:05.003Z,100742.47
2024-01-24T09:22:35.472Z,100716.97
2024-01-24T09:25:10.789Z,100709.22
2024-01-24T09:27:45.694Z,100702.94
2024-01-24T09:30:17.258Z,100716.19
2024-01-24T09:32:47.598Z,100703.84
2024-01-24T09:35:18.391Z,100765.50
2024-01-24T09:37:49.029Z,100723.56
2024-01-24T09:40:20.411Z,100755.97
2024-01-24T09:42:53.356Z,100761.16
2024-01-24T09:45:26.418Z,100652.53
2024-01-24T09:47:58.842Z,100779.84
2024-01-24T09:50:30.268Z,100748.97
2024-01-24T09:53:00.933Z,100763.56
2024-01-24T09:55:33.238Z,100690.13
2024-01-24T09:58:08.863Z,100686.75
2024-01-24T10:00:40.763Z,100808.78
2024-01-24T10:03:11.776Z,100774.56
2024-01-24T10:05:42.711Z,100774.69
2024-01-24T10:08:12.987Z,100779.09
2024-01-24T10:10:43.938Z,100810.38
2024-01-24T10:13:16.659Z,100797.25
2024-01-24T10:15:46.789Z,100828.31
2024-01-24T10:18:17.138Z,100826.53
2024-01-24T10:20:53.204Z,100742.28
2024-01-24T10:23:25.016Z,100811.84
2024-01-24T10:25:55.412Z,100830.84
2024-01-24T10:28:28.687Z,100736.19
2024-01-24T10:30:59.143Z,100813.75
2024-01-24T10:33:29.527Z,100834.50
2024-01-24T10:36:05.174Z,100757.63
2024-01-24T10:38:43.532Z,100810.09
2024-01-24T10:41:18.163Z,100815.00
2024-01-24T10:43:54.236Z,100792.63
2024-01-24T10:46:24.375Z,100825.63
2024-01-24T10:48:55.590Z,100851.25
2024-01-24T10:51:27.524Z,100821.66
2024-01-24T10:53:59.225Z,100771.66
2024-01-24T10:56:31.414Z,100839.66
2024-01-24T10:59:05.925Z,100761.34
2024-01-24T11:01:36.402Z,100821.78
2024-01-24T11:04:10.200Z,100835.47
2024-01-24T11:06:48.976Z,100850.38
2024-01-24T11:09:27.102Z,100805.44
2024-01-24T11:12:01.452Z,100814.78
2024-01-24T11:14:38.438Z,100861.41
2024-01-24T11:17:09.065Z,100885.25
2024-01-24T11:19:39.666Z,100876.09
2024-01-24T11:22:20.014Z,100806.84
2024-01-24T11:24:56.803Z,100875.00
2024-01-24T11:27:34.169Z,100835.31
2024-01-24T11:30:20.321Z,100852.63
2024-01-24T11:33:06.151Z,100888.75
2024-01-24T11:35:38.788Z,100870.41
2024-01-24T11:38:20.035Z,100889.63
2024-01-24T11:40:56.728Z,100899.13
2024-01-24T11:43:28.886Z,100897.25
2024-01-24T11:46:05.115Z,100886.59
2024-01-24T11:48:38.296Z,100902.25
2024-01-24T11:51:11.527Z,100898.66
2024-01-24T11:53:41.812Z,100890.66
2024-01-24T11:56:15.897Z,100905.59
2024-01-24T11:58:46.355Z,100928.84
2024-01-24T12:01:19.174Z,100926.28
2024-01-24T12:03:51.685Z,100936.41
2024-01-24T12:06:22.566Z,100923.56
2024-01-24T12:08:54.385Z,100904.44
2024-01-24T12:11:25.912Z,100904.44
2024-01-24T12:13:56.158Z,100921.72
2024-01-24T12:16:31.647Z,100969.50
2024-01-24T12:19:02.926Z,100927.44
2024-01-24T12:21:35.039Z,100929.00
2024-01-24T12:24:05.476Z,100951.53
2024-01-24T12:26:36.697Z,100954.03
2024-01-24T12:29:11.874Z,100887.69
2024-01-24T12:31:47.183Z,100708.84
2024-01-24T12:34:18.360Z,100615.41
2024-01-24T12:36:49.376Z,100958.56
2024-01-24T12:39:21.150Z,100967.28
2024-01-24T12:41:51.712Z,100933.63
2024-01-24T12:44:24.415Z,100988.81
2024-01-24T12:47:02.764Z,101016.13
2024-01-24T12:49:33.126Z,100996.34
2024-01-24T12:52:03.612Z,100999.56
2024-01-24T12:54:33.845Z,101017.47
2024-01-24T12:57:03.971Z,101017.63
2024-01-24T12:59:34.054Z,100990.16
2024-01-24T13:02:07.104Z,101040.16
2024-01-24T13:04:37.459Z,101008.13
2024-01-24T13:07:08.321Z,101049.47
2024-01-24T13:09:42.954Z,101042.69
2024-01-24T13:12:17.181Z,101011.50
2024-01-24T13:14:47.512Z,100905.09
2024-01-24T13:17:22.197Z,101021.09
2024-01-24T13:19:52.563Z,101011.13
2024-01-24T13:22:22.789Z,101053.38
2024-01-24T13:24:55.272Z,101049.97
2024-01-24T13:27:26.228Z,101049.75
2024-01-24T13:29:56.441Z,101064.41
2024-01-24T13:32:29.503Z,101065.13
2024-01-24T13:35:00.253Z,101099.47
2024-01-24T13:37:30.638Z,101083.84
2024-01-24T13:40:00.973Z,101056.31
2024-01-24T13:42:31.536Z,101058.03
2024-01-24T13:45:01.905Z,101075.19
2024-01-24T13:47:35.075Z,101089.75
2024-01-24T13:50:06.933Z,101093.72
2024-01-24T13:52:37.093Z,101126.53
2024-01-24T13:55:09.651Z,101123.94
2024-01-24T13:57:43.751Z,101126.16
2024-01-24T14:00:17.047Z,101141.47
2024-01-24T14:02:50.031Z,101087.34
2024-01-24T14:05:20.849Z,101128.38
2024-01-24T14:07:51.058Z,101127.38
2024-01-24T14:10:21.483Z,100905.03
2024-01-24T14:12:51.968Z,101144.25
2024-01-24T14:15:32.965Z,101102.75
2024-01-24T14:18:09.577Z,101173.69
2024-01-24T14:20:40.496Z,101181.31
2024-01-24T14:23:11.826Z,101187.22
2024-01-24T14:25:41.885Z,101199.09
2024-01-24T14:28:12.156Z,101183.19
2024-01-24T14:30:42.503Z,101196.25
2024-01-24T14:33:20.404Z,101224.63
2024-01-24T14:35:54.404Z,101214.13
2024-01-24T14:38:24.509Z,101234.00
2024-01-24T14:40:54.671Z,101166.75
2024-01-24T14:43:24.912Z,101240.00
2024-01-24T14:45:55.193Z,101215.75
2024-01-24T14:48:28.224Z,101258.88
2024-01-24T14:50:58.400Z,101264.72
2024-01-24T14:53:28.590Z,101247.53
2024-01-24T14:55:58.714Z,101146.66
2024-01-24T14:58:29.418Z,101211.88
2024-01-24T15:00:59.710Z,101279.75
2024-01-24T15:03:32.864Z,101212.25
2024-01-24T15:06:03.167Z,101271.75
2024-01-24T15:08:33.479Z,101296.56
2024-01-24T15:11:03.640Z,101214.41
2024-01-24T15:13:34.124Z,101311.88
2024-01-24T15:16:04.865Z,101298.19
2024-01-24T15:18:39.704Z,101257.13
2024-01-24T15:21:13.700Z,101242.31
2024-01-24T15:23:45.815Z,101296.66
2024-01-24T15:26:16.873Z,101296.88
2024-01-24T15:28:49.690Z,101308.81
2024-01-24T15:31:21.128Z,101324.59
2024-01-24T15:33:54.907Z,101184.53
2024-01-24T15:36:25.302Z,101309.88
2024-01-24T15:38:56.203Z,101349.44
2024-01-24T15:41:26.433Z,101335.44
2024-01-24T15:43:56.624Z,101324.25
2024-01-24T15:46:27.106Z,101365.53
2024-01-24T15:49:00.353Z,101349.00
2024-01-24T15:51:30.809Z,101354.88
2024-01-24T15:54:01.195Z,101297.53
2024-01-24T15:56:31.613Z,101331.22
2024-01-24T15:59:02.867Z,101392.59
2024-01-24T16:01:33.083Z,101358.22
2024-01-24T16:04:06.230Z,101398.34
2024-01-24T16:06:36.963Z,101361.84
2024-01-24T16:09:07.647Z,101365.84
2024-01-24T16:11:38.223Z,101376.25
2024-01-24T16:14:09.117Z,101408.91
2024-01-24T16:16:39.522Z,101397.38
2024-01-24T16:19:12.494Z,101419.09
2024-01-24T16:21:46.696Z,101414.19
2024-01-24T16:24:16.760Z,101411.38
2024-01-24T16:26:46.839Z,101425.50
2024-01-24T16:29:17.259Z,101414.84
2024-01-24T16:31:47.539Z,101448.81
2024-01-24T16:34:20.334Z,101449.72
2024-01-24T16:36:50.475Z,101449.63
2024-01-24T16:39:20.647Z,101455.69
2024-01-24T16:41:50.768Z,101458.22
2024-01-24T16:44:23.645Z,101468.41
2024-01-24T16:46:53.769Z,101458.44
2024-01-24T16:49:26.567Z,101465.75
2024-01-24T16:51:56.720Z,101466.00
2024-01-24T16:54:26.873Z,101459.69
2024-01-24T16:56:57.092Z,101491.97
2024-01-24T16:59:27.163Z,101503.19
2024-01-24T17:01:57.291Z,101479.72
2024-01-24T17:04:30.458Z,101509.75
2024-01-24T17:07:00.768Z,101511.19
2024-01-24T17:09:30.849Z,101519.00
2024-01-24T17:12:00.943Z,101515.97
2024-01-24T17:14:32.847Z,101516.81
2024-01-24T17:17:04.800Z,101505.31
2024-01-24T17:19:37.662Z,101524.41
2024-01-24T17:22:08.018Z,101523.31
2024-01-24T17:24:38.199Z,101494.59
2024-01-24T17:27:09.876Z,101543.13
2024-01-24T17:29:42.060Z,101539.34
2024-01-24T17:32:12.332Z,101539.97
2024-01-24T17:34:45.319Z,101564.00
2024-01-24T17:37:16.234Z,101545.88
2024-01-24T17:40:20.961Z,101566.72
2024-01-24T17:43:00.642Z,101503.19
2024-01-24T17:45:30.850Z,101557.91
2024-01-24T17:48:01.168Z,101552.50
2024-01-24T17:50:34.593Z,101575.69
2024-01-24T17:53:05.068Z,101563.41
2024-01-24T17:55:35.475Z,101569.63
2024-01-24T17:58:05.733Z,101579.00
2024-01-24T18:00:36.428Z,101588.16
2024-01-24T18:03:07.087Z,101576.88
2024-01-24T18:05:40.059Z,101582.31
2024-01-24T18:08:10.824Z,101569.28
2024-01-24T18:10:40.896Z,101597.50
2024-01-24T18:13:11.010Z,101591.34
2024-01-24T18:15:44.114Z,101577.50
2024-01-24T18:18:14.357Z,101590.84
2024-01-24T18:20:47.120Z,101597.59
2024-01-24T18:23:17.226Z,101511.78
2024-01-24T18:25:48.799Z,101583.13
2024-01-24T18:28:19.071Z,101600.84
2024-01-24T18:30:49.328Z,101619.50
2024-01-24T18:33:20.066Z,101579.63
2024-01-24T18:35:52.884Z,101595.16
2024-01-24T18:38:22.995Z,101617.38
2024-01-24T18:40:53.063Z,101600.63
2024-01-24T18:43:23.867Z,101597.31
2024-01-24T18:45:54.595Z,101624.00
2024-01-24T18:48:24.955Z,101636.00
2024-01-24T18:50:58.136Z,101634.25
2024-01-24T19:01:35.938Z,101650.00
2024-01-24T19:04:06.296Z,101614.31
2024-01-24T19:06:39.748Z,101647.19
2024-01-24T19:09:09.972Z,101620.31
2024-01-24T19:11:40.262Z,101620.50
2024-01-24T19:14:10.655Z,101615.22
2024-01-24T19:16:40.887Z,101653.69
2024-01-24T19:19:11.376Z,101634.16
2024-01-24T19:21:47.465Z,101620.22
2024-01-24T19:24:17.592Z,101640.38
2024-01-24T19:26:47.745Z,101603.78
2024-01-24T19:29:21.018Z,101616.22
2024-01-24T19:31:54.534Z,101662.66
2024-01-24T19:34:38.920Z,101661.94
2024-01-24T19:37:19.645Z,101639.06
2024-01-24T19:39:52.879Z,101669.25
2024-01-24T19:42:28.855Z,101652.91
2024-01-24T19:45:04.005Z,101596.25
2024-01-24T19:47:39.985Z,101641.28
2024-01-24T19:50:16.084Z,101670.75
2024-01-24T19:52:53.460Z,101665.72
2024-01-24T19:55:27.603Z,101676.53
2024-01-24T19:58:01.045Z,101686.84
2024-01-24T20:00:35.583Z,101654.81
2024-01-24T20:03:09.187Z,101684.44
2024-01-24T20:05:42.444Z,101681.75
2024-01-24T20:08:18.050Z,101700.81
2024-01-24T20:10:53.412Z,101691.88
2024-01-24T20:13:27.676Z,101702.25
2024-01-24T20:16:00.889Z,101660.88
2024-01-24T20:18:36.841Z,101667.03
2024-01-24T20:21:10.824Z,101644.97
2024-01-24T20:23:50.249Z,101699.56
2024-01-24T20:26:29.323Z,101628.59
2024-01-24T20:29:08.375Z,101689.28
2024-01-24T20:31:40.997Z,101690.47
2024-01-24T20:34:14.635Z,101703.75
2024-01-24T20:36:48.543Z,101642.88
2024-01-24T20:39:27.073Z,101635.41
2024-01-24T20:42:08.676Z,101645.97
2024-01-24T20:44:47.562Z,101705.28
2024-01-24T20:47:20.415Z,101664.13
2024-01-24T20:49:53.645Z,101693.38
2024-01-24T20:52:30.067Z,101657.31
2024-01-24T20:55:06.851Z,101698.88
2024-01-24T20:57:42.928Z,101668.28
2024-01-24T21:00:18.005Z,101667.41
2024-01-24T21:02:55.705Z,101610.81
2024-01-24T21:05:31.201Z,101706.44
2024-01-24T21:08:04.844Z,101701.44
2024-01-24T21:10:48.657Z,101720.13
2024-01-24T21:13:29.193Z,101675.19
2024-01-24T21:16:01.855Z,101693.63
2024-01-24T21:18:32.398Z,101747.50
2024-01-24T21:21:02.822Z,101651.84
2024-01-24T21:23:33.862Z,101621.16
2024-01-24T21:26:07.255Z,101758.66
2024-01-24T21:28:37.586Z,101754.56
2024-01-24T21:31:10.818Z,101699.63
2024-01-24T21:33:44.198Z,101757.78
2024-01-24T21:36:14.419Z,101654.09
2024-01-24T21:38:45.048Z,101705.78
2024-01-24T21:41:17.934Z,101573.34
2024-01-24T21:43:48.305Z,101684.56
2024-01-24T21:46:21.331Z,101737.00
2024-01-24T21:48:51.771Z,101695.22
2024-01-24T21:51:22.018Z,101750.41
2024-01-24T21:53:52.375Z,101754.56
2024-01-24T21:56:25.299Z,101569.38
2024-01-24T21:58:56.644Z,101717.13
2024-01-24T22:01:27.229Z,101763.09
2024-01-24T22:03:57.577Z,101732.78
2024-01-24T22:06:27.888Z,101673.53
2024-01-24T22:08:58.464Z,101673.41
2024-01-24T22:11:31.440Z,101646.00
2024-01-24T22:14:01.553Z,101776.50
2024-01-24T22:16:31.840Z,101707.75
2024-01-24T22:19:02.787Z,101760.06
2024-01-24T22:21:33.472Z,101602.56
2024-01-24T22:24:04.433Z,101740.97
2024-01-24T22:26:37.328Z,101720.75
2024-01-24T22:29:08.470Z,101618.97
2024-01-24T22:31:38.843Z,101673.72
2024-01-24T22:34:09.268Z,101719.72
2024-01-24T22:36:39.593Z,101608.34
2024-01-24T22:39:09.939Z,101699.09
2024-01-24T22:41:46.106Z,101658.00
2024-01-24T22:44:16.461Z,101658.78
2024-01-24T22:46:46.823Z,101763.31
2024-01-24T22:49:17.258Z,101706.59
2024-01-24T22:51:47.782Z,101761.56
2024-01-24T22:54:17.927Z,101680.38
2024-01-24T22:56:50.864Z,101718.25
2024-01-24T22:59:21.472Z,101626.75
2024-01-24T23:01:52.075Z,101757.84
2024-01-24T23:04:22.626Z,101731.63
2024-01-24T23:06:53.117Z,101744.47
2024-01-24T23:09:23.681Z,101797.84
2024-01-24T23:11:56.645Z,101761.84
2024-01-24T23:14:26.918Z,101789.94
2024-01-24T23:16:57.150Z,101806.28
2024-01-24T23:19:27.320Z,101790.22
2024-01-24T23:21:58.012Z,101774.38
2024-01-24T23:24:28.584Z,101792.06
2024-01-24T23:27:01.474Z,101766.66
2024-01-24T23:29:31.866Z,101750.31
2024-01-24T23:32:01.988Z,101796.50
2024-01-24T23:34:32.299Z,101800.50
2024-01-24T23:37:02.776Z,101801.47
2024-01-24T23:39:33.063Z,101756.41
2024-01-24T23:42:05.902Z,101805.59
2024-01-24T23:44:36.245Z,101801.19
2024-01-24T23:47:06.862Z,101798.28
2024-01-24T23:49:37.662Z,101801.19
2024-01-24T23:52:09.073Z,101802.78
2024-01-24T23:54:39.392Z,101800.16
2024-01-24T23:57:12.096Z,101780.00
2024-01-24T23:59:42.164Z,101743.41
